createdAt,value
2023-04-23T00:00:01.192Z,0.02
2023-04-23T00:01:40.927Z,0.02
2023-04-23T00:03:20.642Z,0
2023-04-23T00:05:00.325Z,0.02
2023-04-23T00:06:40.099Z,0.02
2023-04-23T00:08:19.910Z,0.02
2023-04-23T00:09:59.614Z,0.02
2023-04-23T00:11:39.381Z,0.02
2023-04-23T00:13:19.149Z,0.02
2023-04-23T00:14:58.925Z,0.02
2023-04-23T00:16:38.705Z,0.02
2023-04-23T00:18:18.445Z,0.02
2023-04-23T00:19:58.186Z,0.02
2023-04-23T00:21:38.011Z,0.02
2023-04-23T00:23:17.721Z,0.02
2023-04-23T00:24:57.483Z,0.02
2023-04-23T00:26:37.253Z,0.02
2023-04-23T00:28:17.095Z,0.02
2023-04-23T00:29:56.792Z,0.02
2023-04-23T00:31:36.549Z,0.02
2023-04-23T00:33:17.334Z,0.03
2023-04-23T00:34:56.089Z,0.03
2023-04-23T00:36:35.827Z,0.04
2023-04-23T00:38:15.618Z,0.06
2023-04-23T00:39:55.363Z,0.06
2023-04-23T00:41:35.126Z,0.08
2023-04-23T00:43:14.887Z,0.08
2023-04-23T00:44:54.755Z,0.1
2023-04-23T00:46:34.513Z,0.1
2023-04-23T00:48:14.243Z,0.1
2023-04-23T00:49:53.930Z,0.1
2023-04-23T00:51:33.710Z,0.1
2023-04-23T00:53:13.478Z,0.1
2023-04-23T00:54:53.327Z,0.1
2023-04-23T00:56:32.995Z,0.1
2023-04-23T00:58:12.865Z,0.1
2023-04-23T00:59:52.526Z,0.1
2023-04-23T01:03:12.072Z,0.1
2023-04-23T01:06:31.679Z,0.1
2023-04-23T01:08:11.361Z,0.1
2023-04-23T01:09:51.166Z,0.11
2023-04-23T01:11:30.934Z,0.1
2023-04-23T01:13:10.650Z,0.12
2023-04-23T01:14:50.402Z,0.1
2023-04-23T01:16:30.167Z,0.11
2023-04-23T01:18:09.937Z,0.11
2023-04-23T01:19:49.704Z,0.11
2023-04-23T01:21:29.560Z,0.11
2023-04-23T01:23:09.261Z,0.11
2023-04-23T01:24:49.195Z,0.11
2023-04-23T01:26:28.885Z,0.09
2023-04-23T01:28:08.526Z,0.1
2023-04-23T01:29:48.266Z,0.1
2023-04-23T01:31:28.046Z,0.1
2023-04-23T01:33:07.816Z,0.1
2023-04-23T01:34:47.591Z,0.12
2023-04-23T01:36:27.353Z,0.11
2023-04-23T01:38:07.100Z,0.11
2023-04-23T01:39:46.915Z,0.11
2023-04-23T01:41:26.684Z,0.11
2023-04-23T01:43:06.401Z,0.11
2023-04-23T01:46:26.026Z,0.08
2023-04-23T01:48:05.720Z,0.08
2023-04-23T01:49:45.459Z,0.08
2023-04-23T01:51:25.211Z,0.08
2023-04-23T01:53:04.987Z,0.08
2023-04-23T01:54:44.761Z,0.08
2023-04-23T01:56:24.533Z,0.08
2023-04-23T01:58:04.274Z,0.07
2023-04-23T01:59:44.038Z,0.07
2023-04-23T02:01:23.786Z,0.07
2023-04-23T02:03:03.563Z,0.07
2023-04-23T02:04:43.333Z,0.07
2023-04-23T02:06:23.073Z,0.07
2023-04-23T02:08:02.842Z,0.07
2023-04-23T02:09:42.624Z,0.07
2023-04-23T02:11:26.054Z,0.07
2023-04-23T02:13:02.146Z,0.09
2023-04-23T02:14:42.045Z,0.09
2023-04-23T02:16:21.651Z,0.09
2023-04-23T02:18:01.443Z,0.11
2023-04-23T02:19:41.266Z,0.11
2023-04-23T02:21:20.968Z,0.12
2023-04-23T02:23:00.730Z,0.14
2023-04-23T02:26:20.368Z,0.14
2023-04-23T02:28:00.035Z,0.14
2023-04-23T02:29:39.791Z,0.14
2023-04-23T02:31:19.531Z,0.15
2023-04-23T02:32:59.302Z,0.15
2023-04-23T02:34:39.081Z,0.15
2023-04-23T02:36:18.891Z,0.17
2023-04-23T02:37:58.603Z,0.16
2023-04-23T02:39:38.369Z,0.16
2023-04-23T02:41:18.136Z,0.16
2023-04-23T02:42:57.940Z,0.16
2023-04-23T02:44:37.664Z,0.18
2023-04-23T02:46:49.521Z,0.18
2023-04-23T02:47:57.218Z,0.2
2023-04-23T02:49:37.084Z,0.2
2023-04-23T02:51:16.745Z,0.22
2023-04-23T02:52:56.479Z,0.24
2023-04-23T02:54:36.317Z,0.26
2023-04-23T02:56:16.011Z,0.29
2023-04-23T02:57:55.824Z,0.32
2023-04-23T02:59:35.547Z,0.39
2023-04-23T03:02:55.062Z,0.47
2023-04-23T03:04:34.928Z,0.52
2023-04-23T03:06:14.604Z,0.63
2023-04-23T03:07:54.433Z,0.72
2023-04-23T03:09:34.162Z,0.84
2023-04-23T03:11:13.947Z,0.99
2023-04-23T03:12:53.664Z,1.17
2023-04-23T03:14:33.420Z,1.41
2023-04-23T03:16:13.194Z,1.74
2023-04-23T03:17:52.950Z,2.17
2023-04-23T03:21:12.463Z,3.2
2023-04-23T03:22:52.225Z,3.88
2023-04-23T03:24:32.125Z,4.67
2023-04-23T03:26:11.793Z,5.69
2023-04-23T03:27:51.539Z,7.01
2023-04-23T03:29:31.282Z,8.52
2023-04-23T03:31:11.058Z,10.24
2023-04-23T03:32:50.818Z,12.02
2023-04-23T03:34:30.661Z,12.61
2023-04-23T03:36:10.409Z,12.65
2023-04-23T03:37:50.120Z,12.67
2023-04-23T03:39:29.860Z,12.69
2023-04-23T03:42:49.390Z,12.69
2023-04-23T03:44:29.224Z,12.71
2023-04-23T03:46:09.001Z,12.72
2023-04-23T03:47:48.734Z,12.73
2023-04-23T03:49:28.502Z,12.75
2023-04-23T03:51:08.214Z,12.77
2023-04-23T03:52:47.991Z,12.79
2023-04-23T03:54:27.841Z,12.78
2023-04-23T03:56:07.482Z,12.8
2023-04-23T03:57:47.274Z,12.82
2023-04-23T03:59:27.073Z,12.82
2023-04-23T04:01:06.809Z,12.83
2023-04-23T04:02:46.573Z,12.85
2023-04-23T04:04:26.430Z,12.85
2023-04-23T04:06:06.122Z,12.86
2023-04-23T04:07:45.862Z,12.85
2023-04-23T04:09:25.632Z,12.87
2023-04-23T04:11:05.476Z,12.87
2023-04-23T04:12:45.142Z,12.85
2023-04-23T04:14:24.904Z,12.85
2023-04-23T04:16:04.667Z,12.87
2023-04-23T04:17:44.444Z,12.88
2023-04-23T04:19:24.211Z,12.89
2023-04-23T04:21:03.982Z,28.22
2023-04-23T04:24:23.501Z,14.87
2023-04-23T04:26:03.316Z,14.08
2023-04-23T04:27:43.021Z,14.11
2023-04-23T04:29:22.793Z,14.13
2023-04-23T04:31:02.627Z,14.2
2023-04-23T04:32:42.315Z,14.26
2023-04-23T04:34:22.076Z,14.21
2023-04-23T04:36:01.973Z,14.29
2023-04-23T04:37:41.623Z,14.29
2023-04-23T04:39:21.399Z,14.37
2023-04-23T04:41:01.283Z,14.37
2023-04-23T04:42:40.947Z,14.45
2023-04-23T04:46:00.427Z,14.56
2023-04-23T04:47:40.197Z,14.64
2023-04-23T04:49:19.964Z,14.73
2023-04-23T04:50:59.706Z,14.84
2023-04-23T04:52:39.465Z,15.04
2023-04-23T04:54:19.239Z,15.07
2023-04-23T04:55:59.028Z,15.17
2023-04-23T04:57:38.760Z,15.26
2023-04-23T04:59:18.571Z,15.3
2023-04-23T05:02:38.060Z,15.35
2023-04-23T05:04:17.820Z,15.37
2023-04-23T05:05:57.578Z,15.41
2023-04-23T05:07:37.358Z,15.46
2023-04-23T05:09:17.160Z,15.46
2023-04-23T05:10:56.882Z,15.5
2023-04-23T05:12:36.639Z,15.56
2023-04-23T05:14:16.412Z,15.53
2023-04-23T05:15:56.234Z,15.57
2023-04-23T05:17:35.956Z,15.67
2023-04-23T05:19:15.779Z,15.59
2023-04-23T05:20:55.480Z,15.6
2023-04-23T05:22:35.209Z,15.64
2023-04-23T05:24:14.989Z,24.43
2023-04-23T05:25:54.767Z,15.74
2023-04-23T05:27:34.588Z,15.74
2023-04-23T05:29:14.276Z,15.73
2023-04-23T05:30:54.058Z,15.74
2023-04-23T05:32:33.815Z,15.81
2023-04-23T05:35:53.332Z,15.79
2023-04-23T05:37:33.153Z,15.81
2023-04-23T05:39:12.863Z,15.84
2023-04-23T05:42:32.400Z,15.91
2023-04-23T05:45:51.900Z,15.96
2023-04-23T05:47:31.694Z,15.96
2023-04-23T05:49:11.434Z,15.94
2023-04-23T05:50:51.207Z,15.96
2023-04-23T05:52:31.010Z,16.01
2023-04-23T05:54:10.779Z,16.09
2023-04-23T05:55:50.502Z,16.15
2023-04-23T05:59:10.084Z,16.08
2023-04-23T06:00:49.781Z,16.04
2023-04-23T06:02:29.541Z,15.94
2023-04-23T06:04:09.310Z,15.97
2023-04-23T06:07:28.843Z,15.88
2023-04-23T06:09:08.604Z,15.82
2023-04-23T06:12:28.149Z,15.72
2023-04-23T06:14:07.894Z,15.71
2023-04-23T06:15:47.663Z,15.77
2023-04-23T06:17:27.419Z,15.94
2023-04-23T06:19:07.198Z,16.11
2023-04-23T06:20:46.952Z,44.34
2023-04-23T06:22:26.734Z,44.38
2023-04-23T06:24:06.581Z,44.44
2023-04-23T06:25:46.322Z,44.43
2023-04-23T06:29:05.763Z,43.97
2023-04-23T06:30:45.713Z,43.75
2023-04-23T06:32:25.384Z,43.78
2023-04-23T06:34:05.082Z,43.95
2023-04-23T06:35:44.851Z,44.27
2023-04-23T06:37:24.597Z,44.55
2023-04-23T06:39:04.512Z,44.66
2023-04-23T06:40:44.124Z,44.75
2023-04-23T06:42:23.902Z,44.93
2023-04-23T06:44:03.652Z,45.2
2023-04-23T06:45:43.456Z,45.53
2023-04-23T06:49:02.966Z,46.01
2023-04-23T06:52:22.484Z,46.26
2023-04-23T06:55:42.002Z,46.13
2023-04-23T06:57:21.795Z,45.9
2023-04-23T06:59:01.652Z,45.7
2023-04-23T07:00:41.288Z,45.52
2023-04-23T07:02:21.099Z,45.43
2023-04-23T07:04:00.830Z,45.31
2023-04-23T07:05:40.650Z,45.3
2023-04-23T07:07:20.350Z,45.34
2023-04-23T07:09:00.121Z,45.28
2023-04-23T07:10:39.996Z,45.09
2023-04-23T07:12:19.699Z,44.77
2023-04-23T07:13:59.422Z,44.37
2023-04-23T07:15:39.236Z,43.91
2023-04-23T07:17:18.990Z,43.63
2023-04-23T07:18:58.780Z,43.38
2023-04-23T07:20:38.481Z,43.07
2023-04-23T07:22:18.241Z,42.93
2023-04-23T07:23:58.010Z,43.37
2023-04-23T07:25:37.758Z,43.72
2023-04-23T07:27:17.542Z,43.72
2023-04-23T07:28:57.299Z,43.33
2023-04-23T07:30:37.052Z,42.92
2023-04-23T07:32:16.817Z,42.47
2023-04-23T07:35:36.338Z,39.9
2023-04-23T07:37:16.125Z,39.36
2023-04-23T07:38:55.890Z,39.08
2023-04-23T07:40:35.695Z,39.73
2023-04-23T07:42:15.406Z,40.79
2023-04-23T07:45:34.952Z,42.19
2023-04-23T07:47:14.744Z,43.12
2023-04-23T07:48:54.490Z,43.47
2023-04-23T07:50:34.392Z,43.34
2023-04-23T07:52:14.053Z,43.32
2023-04-23T07:53:53.811Z,43.73
2023-04-23T07:55:33.546Z,43.86
2023-04-23T07:57:13.303Z,43.91
2023-04-23T07:58:53.083Z,44
2023-04-23T08:00:32.938Z,43.91
2023-04-23T08:02:12.582Z,43.8
2023-04-23T08:03:52.340Z,43.75
2023-04-23T08:05:32.150Z,43.91
2023-04-23T08:07:11.861Z,44.49
2023-04-23T08:08:51.630Z,44.9
2023-04-23T08:10:31.388Z,44.86
2023-04-23T08:12:11.159Z,44.79
2023-04-23T08:13:50.924Z,44.78
2023-04-23T08:15:30.694Z,44.98
2023-04-23T08:17:10.525Z,45.18
2023-04-23T08:20:30.037Z,45.45
2023-04-23T08:22:09.873Z,45.36
2023-04-23T08:25:29.303Z,44.92
2023-04-23T08:27:09.042Z,44.75
2023-04-23T08:28:48.813Z,44.93
2023-04-23T08:30:28.620Z,45.15
2023-04-23T08:32:08.321Z,45.37
2023-04-23T08:33:48.089Z,45.48
2023-04-23T08:35:27.918Z,45.56
2023-04-23T08:37:07.738Z,45.75
2023-04-23T08:38:47.371Z,46.06
2023-04-23T08:42:06.935Z,46.65
2023-04-23T08:45:26.484Z,46.75
2023-04-23T08:47:06.207Z,46.77
2023-04-23T08:48:45.996Z,46.7
2023-04-23T08:50:25.726Z,46.57
2023-04-23T08:52:05.484Z,46.44
2023-04-23T08:55:25.014Z,46.24
2023-04-23T08:57:04.999Z,46.01
2023-04-23T08:58:44.560Z,46.17
2023-04-23T09:02:04.188Z,45.61
2023-04-23T09:03:43.897Z,45.64
2023-04-23T09:05:23.728Z,45.74
2023-04-23T09:07:03.474Z,45.61
2023-04-23T09:08:43.140Z,45.72
2023-04-23T09:10:22.901Z,44.76
2023-04-23T09:12:02.717Z,45.03
2023-04-23T09:15:22.178Z,45.95
2023-04-23T09:17:02.052Z,45.45
2023-04-23T09:18:41.705Z,46.16
2023-04-23T09:20:21.522Z,46.41
2023-04-23T09:22:01.284Z,46.12
2023-04-23T09:23:41.151Z,46.1
2023-04-23T09:27:00.739Z,45.56
2023-04-23T09:28:40.355Z,44.7
2023-04-23T09:30:20.059Z,44.27
2023-04-23T09:31:59.829Z,43.1
2023-04-23T09:33:39.657Z,42.78
2023-04-23T09:35:19.351Z,43.55
2023-04-23T09:36:59.126Z,43.81
2023-04-23T09:38:38.872Z,43.88
2023-04-23T09:40:18.653Z,43.44
2023-04-23T09:41:58.438Z,42.34
2023-04-23T09:45:17.934Z,43.16
2023-04-23T09:46:57.751Z,44.44
2023-04-23T09:48:37.460Z,43.64
2023-04-23T09:50:17.325Z,41.25
2023-04-23T09:51:57.090Z,41.33
2023-04-23T09:55:16.524Z,43.19
2023-04-23T09:56:56.316Z,43.19
2023-04-23T09:58:36.089Z,43.78
2023-04-23T10:00:15.794Z,44.44
2023-04-23T10:03:35.361Z,45.17
2023-04-23T10:05:15.154Z,45.29
2023-04-23T10:06:54.895Z,45.25
2023-04-23T10:08:34.719Z,45.73
2023-04-23T10:10:14.381Z,45.87
2023-04-23T10:11:54.181Z,45.5
2023-04-23T10:13:33.919Z,45.71
2023-04-23T10:16:53.472Z,45.92
2023-04-23T10:18:33.196Z,45.91
2023-04-23T10:20:13.179Z,45.92
2023-04-23T10:21:52.824Z,45.85
2023-04-23T10:25:12.278Z,45.54
2023-04-23T10:26:52.034Z,45.98
2023-04-23T10:28:31.801Z,46.36
2023-04-23T10:31:51.344Z,45.88
2023-04-23T10:35:10.844Z,46.6
2023-04-23T10:36:50.616Z,47.11
2023-04-23T10:38:30.441Z,47.57
2023-04-23T10:40:10.152Z,47.73
2023-04-23T10:41:49.910Z,47.49
2023-04-23T10:45:09.421Z,48.2
2023-04-23T10:48:28.962Z,47.68
2023-04-23T10:50:08.891Z,47.37
2023-04-23T10:51:48.483Z,47
2023-04-23T10:55:08.018Z,46.72
2023-04-23T10:56:47.782Z,46.68
2023-04-23T10:58:27.541Z,46.81
2023-04-23T11:00:07.311Z,46.76
2023-04-23T11:01:47.070Z,46.86
2023-04-23T11:03:26.960Z,46.66
2023-04-23T11:05:06.592Z,46.13
2023-04-23T11:06:46.364Z,46.13
2023-04-23T11:08:26.148Z,46.17
2023-04-23T11:10:05.932Z,46.19
2023-04-23T11:11:45.694Z,46.14
2023-04-23T11:13:25.423Z,45.89
2023-04-23T11:15:05.192Z,45.83
2023-04-23T11:16:45.131Z,45.48
2023-04-23T11:18:24.724Z,45.12
2023-04-23T11:20:04.496Z,45.04
2023-04-23T11:21:44.237Z,44.97
2023-04-23T11:23:24.007Z,44.88
2023-04-23T11:25:03.825Z,44.87
2023-04-23T11:26:43.528Z,45.06
2023-04-23T11:28:23.282Z,45.52
2023-04-23T11:30:03.064Z,45.76
2023-04-23T11:31:42.821Z,45.9
2023-04-23T11:33:22.731Z,46.33
2023-04-23T11:35:02.379Z,46.8
2023-04-23T11:36:42.190Z,47.09
2023-04-23T11:38:21.961Z,46.89
2023-04-23T11:40:01.728Z,46.83
2023-04-23T11:41:41.471Z,46.94
2023-04-23T11:43:21.191Z,46.97
2023-04-23T11:45:00.943Z,47.08
2023-04-23T11:46:40.728Z,45.83
2023-04-23T11:48:20.459Z,45.44
2023-04-23T11:50:00.370Z,45.7
2023-04-23T11:51:39.999Z,45.84
2023-04-23T11:53:19.756Z,45.62
2023-04-23T11:54:59.553Z,45.3
2023-04-23T11:56:39.284Z,45.95
2023-04-23T11:58:19.072Z,45.5
2023-04-23T12:01:38.585Z,45.51
2023-04-23T12:03:18.331Z,45.32
2023-04-23T12:04:58.101Z,45.49
2023-04-23T12:06:37.865Z,46.86
2023-04-23T12:08:17.676Z,45.58
2023-04-23T12:09:57.449Z,46.36
2023-04-23T12:11:37.169Z,46.59
2023-04-23T12:13:16.931Z,45.11
2023-04-23T12:14:56.724Z,46.08
2023-04-23T12:18:16.218Z,45.38
2023-04-23T12:19:56.049Z,45.85
2023-04-23T12:21:35.737Z,46.33
2023-04-23T12:23:15.528Z,46.13
2023-04-23T12:24:55.362Z,44.9
2023-04-23T12:26:35.033Z,45.15
2023-04-23T12:28:14.914Z,45.54
2023-04-23T12:29:54.654Z,45.83
2023-04-23T12:31:34.336Z,45.45
2023-04-23T12:33:14.173Z,45.27
2023-04-23T12:34:53.893Z,45.43
2023-04-23T12:36:33.642Z,45.4
2023-04-23T12:38:13.384Z,45.29
2023-04-23T12:41:32.910Z,45.89
2023-04-23T12:43:12.682Z,46.37
2023-04-23T12:44:52.437Z,45.73
2023-04-23T12:46:32.206Z,46
2023-04-23T12:48:11.984Z,46.07
2023-04-23T12:49:51.724Z,46.48
2023-04-23T12:51:31.607Z,45.53
2023-04-23T12:53:11.346Z,45.24
2023-04-23T12:54:51.067Z,46.1
2023-04-23T12:56:30.916Z,44.1
2023-04-23T12:58:10.550Z,44.73
2023-04-23T12:59:50.442Z,47.17
2023-04-23T13:01:30.116Z,44.16
2023-04-23T13:04:49.607Z,46.33
2023-04-23T13:06:29.365Z,45.94
2023-04-23T13:08:09.142Z,43.24
2023-04-23T13:11:28.678Z,45.28
2023-04-23T13:13:08.455Z,45.94
2023-04-23T13:14:48.229Z,46.31
2023-04-23T13:16:27.954Z,46.01
2023-04-23T13:18:07.723Z,46.15
2023-04-23T13:19:47.503Z,45.86
2023-04-23T13:21:27.263Z,45.82
2023-04-23T13:23:07.034Z,45.17
2023-04-23T13:24:46.772Z,46.07
2023-04-23T13:26:26.547Z,45.94
2023-04-23T13:28:06.374Z,45.73
2023-04-23T13:29:46.181Z,44.67
2023-04-23T13:31:25.827Z,43.88
2023-04-23T13:33:05.604Z,46.49
2023-04-23T13:34:45.367Z,43.78
2023-04-23T13:36:25.115Z,43.31
2023-04-23T13:38:04.901Z,44.05
2023-04-23T13:39:44.704Z,47.16
2023-04-23T13:41:24.420Z,46.93
2023-04-23T13:43:04.175Z,46.43
2023-04-23T13:44:43.934Z,44.7
2023-04-23T13:46:23.752Z,45.17
2023-04-23T13:48:03.474Z,47.19
2023-04-23T13:49:43.276Z,45.63
2023-04-23T13:51:23.065Z,44.83
2023-04-23T13:53:02.759Z,45.04
2023-04-23T13:54:42.545Z,45.44
2023-04-23T13:56:22.307Z,45.17
2023-04-23T13:58:02.054Z,45
2023-04-23T13:59:41.821Z,46.46
2023-04-23T14:01:21.583Z,47.36
2023-04-23T14:03:01.357Z,46.92
2023-04-23T14:04:41.168Z,46.5
2023-04-23T14:06:20.890Z,46.2
2023-04-23T14:08:00.650Z,46.2
2023-04-23T14:09:40.415Z,45.91
2023-04-23T14:11:20.184Z,46.01
2023-04-23T14:14:39.738Z,45
2023-04-23T14:16:19.483Z,44.37
2023-04-23T14:17:59.234Z,45.96
2023-04-23T14:19:39.066Z,44.95
2023-04-23T14:21:18.793Z,43.81
2023-04-23T14:22:58.526Z,43.84
2023-04-23T14:24:38.280Z,46.4
2023-04-23T14:26:18.048Z,44.39
2023-04-23T14:27:57.801Z,46.13
2023-04-23T14:29:37.564Z,45.8
2023-04-23T14:31:17.338Z,45.7
2023-04-23T14:32:57.122Z,45.65
2023-04-23T14:34:36.865Z,45.74
2023-04-23T14:36:16.640Z,45.72
2023-04-23T14:37:56.478Z,45.71
2023-04-23T14:39:36.290Z,45.61
2023-04-23T14:42:55.693Z,45.46
2023-04-23T14:44:35.588Z,45.52
2023-04-23T14:46:15.212Z,42.58
2023-04-23T14:51:14.514Z,43.51
2023-04-23T14:52:54.301Z,44
2023-04-23T14:54:34.118Z,46.92
2023-04-23T14:56:13.804Z,44.98
2023-04-23T14:57:53.566Z,46.41
2023-04-23T14:59:33.308Z,46.1
2023-04-23T15:01:13.137Z,45.87
2023-04-23T15:02:52.903Z,45.65
2023-04-23T15:04:32.637Z,45.57
2023-04-23T15:06:12.439Z,45.45
2023-04-23T15:07:52.139Z,45.39
2023-04-23T15:09:32.089Z,45.35
2023-04-23T15:11:11.686Z,45.3
2023-04-23T15:12:51.447Z,45.34
2023-04-23T15:14:31.388Z,45.42
2023-04-23T15:16:10.990Z,45.47
2023-04-23T15:17:50.721Z,45.56
2023-04-23T15:21:10.265Z,45.67
2023-04-23T15:22:50.055Z,45.62
2023-04-23T15:24:29.810Z,45.6
2023-04-23T15:26:09.549Z,45.5
2023-04-23T15:27:49.381Z,45.51
2023-04-23T15:29:29.206Z,45.57
2023-04-23T15:31:08.841Z,45.24
2023-04-23T15:32:48.775Z,43.2
2023-04-23T15:34:28.420Z,44.55
2023-04-23T15:36:08.143Z,45.96
2023-04-23T15:37:47.905Z,45.31
2023-04-23T15:41:07.482Z,45.04
2023-04-23T15:42:47.324Z,44.29
2023-04-23T15:44:27.002Z,45.11
2023-04-23T15:46:06.778Z,45.26
2023-04-23T15:47:46.485Z,45.78
2023-04-23T15:51:06.124Z,44.74
2023-04-23T15:52:45.796Z,44.69
2023-04-23T15:54:25.542Z,45.96
2023-04-23T15:56:05.318Z,45.81
2023-04-23T15:57:45.068Z,45.53
2023-04-23T15:59:24.894Z,45.43
2023-04-23T16:01:04.749Z,45.31
2023-04-23T16:02:44.397Z,45.34
2023-04-23T16:04:24.153Z,45.11
2023-04-23T16:06:04.076Z,45.04
2023-04-23T16:07:43.780Z,44.79
2023-04-23T16:11:03.337Z,44.11
2023-04-23T16:14:22.869Z,41.99
2023-04-23T16:16:02.664Z,41.5
2023-04-23T16:19:22.177Z,43.02
2023-04-23T16:21:01.774Z,45.25
2023-04-23T16:22:41.642Z,44.73
2023-04-23T16:24:21.424Z,45.18
2023-04-23T16:26:01.173Z,45.03
2023-04-23T16:27:41.009Z,44.88
2023-04-23T16:29:20.770Z,44.17
2023-04-23T16:31:00.475Z,43.66
2023-04-23T16:32:40.221Z,43.27
2023-04-23T16:34:20.064Z,42.63
2023-04-23T16:35:59.870Z,43.35
2023-04-23T16:37:39.597Z,43.61
2023-04-23T16:39:19.359Z,43.93
2023-04-23T16:44:18.670Z,43.92
2023-04-23T16:45:58.368Z,43.84
2023-04-23T16:47:38.171Z,43.7
2023-04-23T16:49:17.936Z,43.49
2023-04-23T16:50:57.625Z,42.95
2023-04-23T16:52:37.513Z,42.96
2023-04-23T16:54:17.214Z,42.73
2023-04-23T16:55:56.996Z,42.33
2023-04-23T16:57:36.790Z,41.88
2023-04-23T16:59:16.406Z,41.42
2023-04-23T17:00:56.272Z,41.23
2023-04-23T17:02:36.038Z,40.86
2023-04-23T17:04:15.624Z,40.49
2023-04-23T17:05:55.424Z,40.18
2023-04-23T17:07:35.157Z,40.12
2023-04-23T17:09:14.962Z,39.87
2023-04-23T17:10:54.729Z,39.91
2023-04-23T17:12:34.504Z,39.87
2023-04-23T17:14:14.359Z,40.06
2023-04-23T17:15:54.117Z,40.05
2023-04-23T17:17:33.987Z,40.37
2023-04-23T17:19:13.669Z,40.07
2023-04-23T17:20:53.369Z,40.38
2023-04-23T17:22:33.062Z,40.41
2023-04-23T17:24:13.034Z,41.18
2023-04-23T17:25:52.552Z,41.49
2023-04-23T17:27:32.542Z,41.63
2023-04-23T17:29:12.204Z,41.58
2023-04-23T17:30:52.069Z,41.79
2023-04-23T17:32:31.788Z,41.64
2023-04-23T17:34:11.523Z,41.62
2023-04-23T17:35:51.288Z,41.24
2023-04-23T17:37:30.945Z,40.93
2023-04-23T17:39:10.926Z,40.62
2023-04-23T17:40:50.661Z,40.27
2023-04-23T17:42:30.366Z,40.05
2023-04-23T17:44:10.205Z,39.64
2023-04-23T17:45:49.917Z,39.66
2023-04-23T17:47:29.632Z,39.33
2023-04-23T17:49:09.447Z,38.95
2023-04-23T17:50:49.271Z,38.77
2023-04-23T17:52:28.956Z,38.8
2023-04-23T17:54:08.733Z,38.37
2023-04-23T17:55:48.367Z,37.68
2023-04-23T17:57:28.180Z,37.54
2023-04-23T17:59:07.958Z,36.59
2023-04-23T18:00:47.652Z,36.93
2023-04-23T18:02:27.379Z,36.18
2023-04-23T18:04:07.241Z,35.14
2023-04-23T18:05:46.944Z,33.5
2023-04-23T18:07:26.737Z,32.08
2023-04-23T18:09:06.422Z,19.79
2023-04-23T18:10:46.183Z,14.9
2023-04-23T18:12:26.013Z,15.92
2023-04-23T18:14:05.776Z,20.24
2023-04-23T18:15:45.572Z,13.34
2023-04-23T18:17:25.400Z,13.25
2023-04-23T18:19:05.012Z,13.21
2023-04-23T18:20:44.906Z,13.17
2023-04-23T18:22:24.717Z,13.15
2023-04-23T18:24:04.298Z,13.13
2023-04-23T18:25:44.061Z,13.11
2023-04-23T18:27:23.873Z,13.09
2023-04-23T18:29:03.754Z,13.07
2023-04-23T18:30:43.360Z,13.05
2023-04-23T18:32:23.248Z,13.04
2023-04-23T18:34:02.965Z,13.01
2023-04-23T18:35:42.820Z,13.02
2023-04-23T18:37:22.406Z,13
2023-04-23T18:39:02.248Z,12.98
2023-04-23T18:40:41.941Z,12.96
2023-04-23T18:42:21.711Z,12.92
2023-04-23T18:44:01.467Z,12.89
2023-04-23T18:45:41.224Z,11.98
2023-04-23T18:47:21.002Z,10.22
2023-04-23T18:49:00.756Z,8.64
2023-04-23T18:50:40.531Z,7.2
2023-04-23T18:52:20.310Z,5.91
2023-04-23T18:54:00.042Z,4.82
2023-04-23T18:55:39.816Z,3.86
2023-04-23T18:57:19.582Z,3.08
2023-04-23T18:58:59.341Z,2.41
2023-04-23T19:00:39.113Z,1.9
2023-04-23T19:02:18.874Z,1.48
2023-04-23T19:03:58.647Z,1.16
2023-04-23T19:05:38.421Z,0.89
2023-04-23T19:07:18.166Z,0.72
2023-04-23T19:08:57.930Z,0.56
2023-04-23T19:10:37.696Z,0.45
2023-04-23T19:12:17.446Z,0.35
2023-04-23T19:13:57.221Z,0.29
2023-04-23T19:15:37.142Z,0.24
2023-04-23T19:17:16.746Z,0.18
2023-04-23T19:18:56.504Z,0.14
2023-04-23T19:20:36.276Z,0.12
2023-04-23T19:22:16.043Z,0.1
2023-04-23T19:23:55.801Z,0.07
2023-04-23T19:25:35.556Z,0.05
2023-04-23T19:27:15.321Z,0.04
2023-04-23T19:30:34.869Z,0.04
2023-04-23T19:32:14.625Z,0.03
2023-04-23T19:33:54.389Z,0.02
2023-04-23T19:35:34.161Z,0.02
2023-04-23T19:37:13.918Z,0.02
2023-04-23T19:40:33.499Z,0.01
2023-04-23T19:42:13.195Z,0.01
2023-04-23T19:43:52.978Z,0.01
2023-04-23T19:45:32.728Z,0.02
2023-04-23T19:47:12.511Z,0
2023-04-23T19:49:03.249Z,0
2023-04-23T19:50:32.039Z,0.02
2023-04-23T19:52:11.790Z,0
2023-04-23T19:53:51.548Z,0
2023-04-23T19:55:31.308Z,0
2023-04-23T19:57:11.090Z,0
2023-04-23T19:58:50.850Z,0
2023-04-23T20:00:30.678Z,0
2023-04-23T20:02:10.362Z,0
2023-04-23T20:03:50.137Z,0
2023-04-23T20:05:29.892Z,0
2023-04-23T20:07:09.659Z,0
2023-04-23T20:08:49.421Z,0
2023-04-23T20:10:29.186Z,0
2023-04-23T20:12:08.961Z,0
2023-04-23T20:13:48.729Z,0
2023-04-23T20:15:28.500Z,0
2023-04-23T20:17:08.242Z,0
2023-04-23T20:18:48.008Z,0
2023-04-23T20:20:27.779Z,0
2023-04-23T20:23:47.292Z,0
2023-04-23T20:25:27.086Z,0
2023-04-23T20:27:06.830Z,0
2023-04-23T20:28:46.598Z,0
2023-04-23T20:30:26.350Z,0
2023-04-23T20:32:06.123Z,0
2023-04-23T20:33:45.875Z,0.01
2023-04-23T20:35:25.657Z,0
2023-04-23T20:37:05.407Z,0
2023-04-23T20:38:45.172Z,0
2023-04-23T20:40:24.934Z,0
2023-04-23T20:43:44.457Z,0
2023-04-23T20:45:24.242Z,0
2023-04-23T20:47:04.000Z,0
2023-04-23T20:48:43.755Z,0
2023-04-23T20:50:23.523Z,0
2023-04-23T20:52:03.300Z,0
2023-04-23T20:53:43.036Z,0
2023-04-23T20:55:22.821Z,0
2023-04-23T20:57:02.580Z,0
2023-04-23T20:58:42.350Z,0
2023-04-23T21:00:22.102Z,0
2023-04-23T21:02:01.890Z,0
2023-04-23T21:03:41.636Z,0
2023-04-23T21:05:21.411Z,0
2023-04-23T21:07:01.174Z,0
2023-04-23T21:08:40.943Z,0
2023-04-23T21:10:20.685Z,0
2023-04-23T21:12:00.449Z,0
2023-04-23T21:13:40.217Z,0
2023-04-23T21:15:19.988Z,0
2023-04-23T21:16:59.754Z,0
2023-04-23T21:18:39.515Z,0
2023-04-23T21:20:19.277Z,0
2023-04-23T21:21:59.036Z,0
2023-04-23T21:23:38.836Z,0
2023-04-23T21:25:18.574Z,0
2023-04-23T21:26:58.321Z,0
2023-04-23T21:28:38.092Z,0
2023-04-23T21:30:17.849Z,0
2023-04-23T21:31:57.629Z,0
2023-04-23T21:33:37.382Z,0
2023-04-23T21:35:17.146Z,0
2023-04-23T21:36:56.914Z,0
2023-04-23T21:38:36.683Z,0
2023-04-23T21:40:16.447Z,0
2023-04-23T21:41:56.217Z,0
2023-04-23T21:43:35.963Z,0
2023-04-23T21:45:15.735Z,0
2023-04-23T21:46:55.488Z,0
2023-04-23T21:48:35.250Z,0
2023-04-23T21:50:15.026Z,0
2023-04-23T21:51:54.777Z,0
2023-04-23T21:55:14.323Z,0
2023-04-23T21:56:54.077Z,0
2023-04-23T21:58:33.831Z,0
2023-04-23T22:00:13.612Z,0
2023-04-23T22:03:33.129Z,0
2023-04-23T22:05:12.907Z,0
2023-04-23T22:06:52.668Z,0
2023-04-23T22:08:32.435Z,0
2023-04-23T22:10:12.189Z,0
2023-04-23T22:11:51.969Z,0
2023-04-23T22:13:31.729Z,0
2023-04-23T22:15:11.488Z,0
2023-04-23T22:16:51.239Z,0
2023-04-23T22:18:31.003Z,0
2023-04-23T22:20:10.781Z,0
2023-04-23T22:23:30.300Z,0
2023-04-23T22:25:10.064Z,0
2023-04-23T22:26:49.816Z,0
2023-04-23T22:28:29.596Z,0
2023-04-23T22:30:09.356Z,0
2023-04-23T22:33:28.895Z,0
2023-04-23T22:35:08.649Z,0
2023-04-23T22:36:48.412Z,0.01
2023-04-23T22:38:28.173Z,0.01
2023-04-23T22:40:07.933Z,0.01
2023-04-23T22:43:27.463Z,0.01
2023-04-23T22:45:07.237Z,0.01
2023-04-23T22:46:47.014Z,0.03
2023-04-23T22:48:26.759Z,0.03
2023-04-23T22:50:06.509Z,0.03
2023-04-23T22:51:46.300Z,0.03
2023-04-23T22:53:26.053Z,0.03
2023-04-23T22:55:05.827Z,0.03
2023-04-23T22:56:45.560Z,0.03
2023-04-23T22:58:25.344Z,0.03
2023-04-23T23:00:05.101Z,0.03
2023-04-23T23:03:24.677Z,0.03
2023-04-23T23:05:04.395Z,0.03
2023-04-23T23:06:44.146Z,0.03
2023-04-23T23:08:23.934Z,0.03
2023-04-23T23:10:03.677Z,0.03
2023-04-23T23:11:43.460Z,0.03
2023-04-23T23:13:23.225Z,0.01
2023-04-23T23:15:02.977Z,0
2023-04-23T23:16:42.744Z,0.02
2023-04-23T23:18:22.499Z,0
2023-04-23T23:20:02.275Z,0
2023-04-23T23:21:42.039Z,0
2023-04-23T23:23:21.798Z,0
2023-04-23T23:25:01.576Z,0
2023-04-23T23:26:41.335Z,0
2023-04-23T23:28:21.087Z,0
2023-04-23T23:30:00.858Z,0.02
2023-04-23T23:31:40.614Z,0
2023-04-23T23:33:20.368Z,0
2023-04-23T23:35:00.140Z,0
2023-04-23T23:36:39.901Z,0
2023-04-23T23:38:19.681Z,0
2023-04-23T23:39:59.442Z,0.01
2023-04-23T23:41:39.192Z,0.01
2023-04-23T23:43:18.960Z,0.01
2023-04-23T23:44:58.720Z,0.01
2023-04-23T23:46:38.502Z,0.01
2023-04-23T23:49:58.023Z,0.01
2023-04-23T23:51:37.793Z,0.01
2023-04-23T23:53:17.536Z,0.01
2023-04-23T23:54:57.311Z,0.01